createdAt,value
2023-02-01T00:03:52.157Z,102075.75
2023-02-01T00:08:56.117Z,102070.94
2023-02-01T00:13:59.223Z,102064.41
2023-02-01T00:19:05.976Z,102059.38
2023-02-01T00:24:09.378Z,102073.28
2023-02-01T00:29:14.749Z,102059.25
2023-02-01T00:34:19.873Z,102050.38
2023-02-01T00:39:22.865Z,102064.31
2023-02-01T00:44:25.883Z,102062.66
2023-02-01T00:49:30.865Z,102063.19
2023-02-01T00:54:34.938Z,102066.69
2023-02-01T00:59:37.872Z,102079.69
2023-02-01T01:04:42.270Z,102065.66
2023-02-01T01:09:45.560Z,102049.53
2023-02-01T01:14:48.715Z,102044.09
2023-02-01T01:19:53.039Z,102044.88
2023-02-01T01:24:56.000Z,102042.53
2023-02-01T01:29:59.016Z,102047.31
2023-02-01T01:35:03.390Z,102038.22
2023-02-01T01:40:08.759Z,102049.16
2023-02-01T01:45:23.181Z,102042.63
2023-02-01T01:50:32.754Z,102035.19
2023-02-01T01:55:39.977Z,102038.69
2023-02-01T02:00:43.651Z,102033.25
2023-02-01T02:05:51.328Z,102023.97
2023-02-01T02:11:03.564Z,102013.09
2023-02-01T02:16:27.333Z,102013.03
2023-02-01T02:21:54.524Z,102011.56
2023-02-01T02:27:05.654Z,102006.59
2023-02-01T02:32:36.161Z,101998.72
2023-02-01T02:37:44.513Z,101993.91
2023-02-01T02:43:24.007Z,101989.19
2023-02-01T02:48:32.791Z,101984.38
2023-02-01T02:54:01.066Z,101987.13
2023-02-01T02:59:23.774Z,102010.47
2023-02-01T03:04:27.346Z,101998.88
2023-02-01T03:09:37.511Z,102005.69
2023-02-01T03:14:46.725Z,101977.91
2023-02-01T03:19:53.971Z,101968.59
2023-02-01T03:25:03.804Z,101948.09
2023-02-01T03:30:13.904Z,101954.31
2023-02-01T03:35:17.050Z,101955.31
2023-02-01T03:40:22.979Z,101949.25
2023-02-01T03:45:31.286Z,101954.75
2023-02-01T03:50:37.503Z,101973.47
2023-02-01T03:55:44.797Z,101956.00
2023-02-01T04:00:53.634Z,101967.34
2023-02-01T04:05:57.077Z,101963.81
2023-02-01T04:11:04.850Z,101971.88
2023-02-01T04:16:08.491Z,101974.88
2023-02-01T04:21:11.463Z,101982.09
2023-02-01T04:26:17.338Z,101979.88
2023-02-01T04:31:26.442Z,101988.97
2023-02-01T04:36:29.671Z,101978.13
2023-02-01T04:41:34.063Z,101980.66
2023-02-01T04:46:37.014Z,101972.25
2023-02-01T04:51:40.389Z,101971.25
2023-02-01T04:56:45.186Z,101965.66
2023-02-01T05:01:49.033Z,101971.69
2023-02-01T05:06:52.161Z,101966.56
2023-02-01T05:12:14.148Z,101971.56
2023-02-01T05:17:17.226Z,101943.69
2023-02-01T05:22:20.200Z,101936.44
2023-02-01T05:27:24.471Z,101952.25
2023-02-01T05:32:27.573Z,101959.78
2023-02-01T05:37:30.927Z,101971.13
2023-02-01T05:42:35.658Z,101988.34
2023-02-01T05:47:38.975Z,101985.06
2023-02-01T05:52:41.896Z,101978.38
2023-02-01T05:57:46.275Z,101988.13
2023-02-01T06:02:49.404Z,101968.41
2023-02-01T06:07:52.489Z,101972.25
2023-02-01T06:12:57.049Z,101980.66
2023-02-01T06:18:00.269Z,101984.97
2023-02-01T06:23:03.380Z,102001.06
2023-02-01T06:28:09.244Z,101996.41
2023-02-01T06:33:12.213Z,101990.63
2023-02-01T06:38:16.391Z,101990.41
2023-02-01T06:43:20.868Z,101990.84
2023-02-01T06:48:24.013Z,102004.34
2023-02-01T06:53:27.320Z,102002.84
2023-02-01T06:58:32.434Z,102007.72
2023-02-01T07:03:35.610Z,102006.00
2023-02-01T07:08:39.704Z,101998.31
2023-02-01T07:13:44.468Z,101992.50
2023-02-01T07:18:47.982Z,101994.88
2023-02-01T07:23:50.995Z,102000.66
2023-02-01T07:28:55.407Z,102003.47
2023-02-01T07:33:59.250Z,102010.38
2023-02-01T07:39:02.270Z,102011.53
2023-02-01T07:44:07.021Z,102007.34
2023-02-01T07:49:10.064Z,102016.16
2023-02-01T07:54:13.158Z,102026.72
2023-02-01T07:59:17.797Z,102041.44
2023-02-01T08:04:20.949Z,102034.66
2023-02-01T08:09:24.123Z,102035.03
2023-02-01T08:14:28.513Z,102025.16
2023-02-01T08:19:31.562Z,102035.03
2023-02-01T08:24:34.753Z,102029.19
2023-02-01T08:29:39.184Z,102017.38
2023-02-01T08:34:42.184Z,102017.97
2023-02-01T08:39:47.609Z,102019.31
2023-02-01T08:44:53.015Z,102020.81
2023-02-01T08:49:56.022Z,102016.94
2023-02-01T08:54:59.099Z,101993.91
2023-02-01T09:00:04.413Z,102005.97
2023-02-01T09:05:08.069Z,102003.56
2023-02-01T09:10:12.617Z,101987.66
2023-02-01T09:15:17.095Z,101996.72
2023-02-01T09:20:22.038Z,101987.91
2023-02-01T09:25:25.762Z,101999.19
2023-02-01T09:30:31.340Z,101988.34
2023-02-01T09:35:34.573Z,101992.25
2023-02-01T09:40:38.195Z,101992.19
2023-02-01T09:45:50.917Z,101997.94
2023-02-01T09:50:58.297Z,102004.00
2023-02-01T09:56:06.392Z,101992.50
2023-02-01T10:01:19.166Z,102006.97
2023-02-01T10:06:32.741Z,102021.59
2023-02-01T10:11:50.690Z,102030.94
2023-02-01T10:17:03.943Z,102024.09
2023-02-01T10:22:11.287Z,102025.69
2023-02-01T10:27:19.007Z,102014.41
2023-02-01T10:32:27.083Z,102020.34
2023-02-01T10:37:33.060Z,102000.97
2023-02-01T10:42:36.415Z,101983.66
2023-02-01T10:47:40.787Z,101987.75
2023-02-01T10:52:49.290Z,101991.22
2023-02-01T10:57:59.522Z,101963.53
2023-02-01T11:03:22.264Z,101976.84
2023-02-01T11:08:25.589Z,101983.44
2023-02-01T11:13:32.929Z,101984.69
2023-02-01T11:18:39.847Z,101983.78
2023-02-01T11:23:45.619Z,101982.88
2023-02-01T11:28:55.332Z,101975.00
2023-02-01T11:34:07.383Z,101969.28
2023-02-01T11:39:21.316Z,101958.81
2023-02-01T11:44:31.975Z,101965.13
2023-02-01T11:49:36.316Z,101981.03
2023-02-01T11:54:53.545Z,101959.81
2023-02-01T12:00:14.020Z,101964.97
2023-02-01T12:05:55.543Z,101945.81
2023-02-01T12:11:16.914Z,101953.72
2023-02-01T12:16:35.413Z,101945.38
2023-02-01T12:21:56.880Z,101954.06
2023-02-01T12:27:12.822Z,101944.84
2023-02-01T12:32:28.229Z,101939.78
2023-02-01T12:37:55.930Z,101935.13
2023-02-01T12:43:04.082Z,101936.31
2023-02-01T12:48:23.279Z,101934.97
2023-02-01T12:53:32.677Z,101942.28
2023-02-01T12:58:43.352Z,101936.16
2023-02-01T13:03:56.160Z,101933.81
2023-02-01T13:09:06.682Z,101925.41
2023-02-01T13:14:18.695Z,101934.81
2023-02-01T13:19:26.773Z,101907.97
2023-02-01T13:24:39.212Z,101924.41
2023-02-01T13:29:49.234Z,101924.69
2023-02-01T13:35:25.185Z,101919.53
2023-02-01T13:40:41.779Z,101931.53
2023-02-01T13:45:49.065Z,101916.97
2023-02-01T13:50:58.449Z,101941.63
2023-02-01T13:56:07.223Z,101937.81
2023-02-01T14:01:46.592Z,101934.59
2023-02-01T14:06:53.708Z,101943.25
2023-02-01T14:11:59.023Z,101953.13
2023-02-01T14:17:41.543Z,101949.22
2023-02-01T14:22:44.592Z,101942.84
2023-02-01T14:27:49.016Z,101967.44
2023-02-01T14:32:52.840Z,101947.28
2023-02-01T14:38:03.663Z,101938.84
2023-02-01T14:43:26.613Z,101938.13
2023-02-01T14:48:48.148Z,101962.16
2023-02-01T14:53:52.584Z,101949.78
2023-02-01T14:59:02.832Z,101951.50
2023-02-01T15:04:07.938Z,101958.25
2023-02-01T15:09:14.724Z,101951.81
2023-02-01T15:14:19.557Z,101974.88
2023-02-01T15:19:24.868Z,101972.97
2023-02-01T15:24:29.897Z,101956.75
2023-02-01T15:29:34.537Z,101974.56
2023-02-01T15:34:48.743Z,101957.66
2023-02-01T15:40:22.960Z,101964.31
2023-02-01T15:45:30.759Z,101967.84
2023-02-01T15:50:35.449Z,101965.53
2023-02-01T15:55:43.313Z,101962.59
2023-02-01T16:00:50.968Z,101973.41
2023-02-01T16:05:58.178Z,101977.81
2023-02-01T16:11:22.863Z,101974.19
2023-02-01T16:16:27.908Z,101984.47
2023-02-01T16:21:30.995Z,101999.25
2023-02-01T16:26:35.495Z,101989.50
2023-02-01T16:31:42.106Z,102004.19
2023-02-01T16:36:45.401Z,102021.41
2023-02-01T16:41:48.519Z,102023.94
2023-02-01T16:46:53.318Z,102023.94
2023-02-01T16:52:00.195Z,102023.09
2023-02-01T16:57:03.272Z,102029.94
2023-02-01T17:02:08.313Z,102020.91
2023-02-01T17:07:14.253Z,102031.44
2023-02-01T17:12:24.286Z,102025.34
2023-02-01T17:17:38.678Z,102036.69
2023-02-01T17:22:42.330Z,102015.25
2023-02-01T17:27:46.530Z,102033.06
2023-02-01T17:32:50.975Z,102033.97
2023-02-01T17:37:56.413Z,102019.69
2023-02-01T17:42:59.429Z,102050.25
2023-02-01T17:48:04.235Z,102058.13
2023-02-01T17:53:09.912Z,102060.94
2023-02-01T17:58:14.835Z,102051.38
2023-02-01T18:03:24.691Z,102076.63
2023-02-01T18:08:29.252Z,102063.19
2023-02-01T18:13:33.673Z,102036.59
2023-02-01T18:18:38.845Z,102058.66
2023-02-01T18:23:42.132Z,102073.66
2023-02-01T18:28:45.441Z,102069.31
2023-02-01T18:33:50.225Z,102057.13
2023-02-01T18:38:54.214Z,102067.59
2023-02-01T18:43:57.390Z,102076.69
2023-02-01T18:49:01.959Z,102060.78
2023-02-01T18:54:05.280Z,102059.44
2023-02-01T18:59:09.194Z,102066.78
2023-02-01T19:04:19.278Z,102075.06
2023-02-01T19:09:29.319Z,102080.72
2023-02-01T19:14:32.415Z,102081.72
2023-02-01T19:19:41.898Z,102082.91
2023-02-01T19:24:45.280Z,102085.75
2023-02-01T19:29:48.242Z,102056.53
2023-02-01T19:34:52.884Z,102071.22
2023-02-01T19:39:55.932Z,102074.69
2023-02-01T19:45:01.739Z,102070.34
2023-02-01T19:50:07.654Z,102086.16
2023-02-01T19:55:11.084Z,102073.97
2023-02-01T20:00:17.169Z,102063.09
2023-02-01T20:05:23.658Z,102093.22
2023-02-01T20:10:26.983Z,102071.03
2023-02-01T20:15:29.921Z,102076.38
2023-02-01T20:20:34.637Z,102087.84
2023-02-01T20:25:38.887Z,102091.47
2023-02-01T20:30:41.996Z,102097.72
2023-02-01T20:35:46.848Z,102097.81
2023-02-01T20:40:49.936Z,102093.59
2023-02-01T20:45:53.053Z,102097.41
2023-02-01T20:50:58.734Z,102102.44
2023-02-01T20:56:01.813Z,102107.88
2023-02-01T21:01:05.072Z,102115.66
2023-02-01T21:06:11.501Z,102120.78
2023-02-01T21:11:16.021Z,102130.66
2023-02-01T21:16:21.894Z,102137.72
2023-02-01T21:21:26.323Z,102127.44
2023-02-01T21:26:40.812Z,102123.78
2023-02-01T21:31:44.209Z,102131.66
2023-02-01T21:36:48.593Z,102130.06
2023-02-01T21:42:09.350Z,102133.78
2023-02-01T21:47:12.322Z,102145.06
2023-02-01T21:52:18.019Z,102149.06
2023-02-01T21:57:21.007Z,102147.50
2023-02-01T22:02:25.644Z,102139.31
2023-02-01T22:07:30.316Z,102149.97
2023-02-01T22:12:33.370Z,102155.63
2023-02-01T22:17:36.683Z,102154.63
2023-02-01T22:22:41.249Z,102157.66
2023-02-01T22:28:30.369Z,102171.16
2023-02-01T22:33:07.222Z,102169.44
2023-02-01T22:38:11.768Z,102173.69
2023-02-01T22:43:14.721Z,102174.97
2023-02-01T22:48:17.919Z,102188.38
2023-02-01T22:53:22.426Z,102169.72
2023-02-01T22:58:25.628Z,102175.16
2023-02-01T23:03:28.575Z,102174.75
2023-02-01T23:08:35.317Z,102182.94
2023-02-01T23:13:40.052Z,102193.28
2023-02-01T23:18:43.123Z,102192.22
2023-02-01T23:23:52.362Z,102186.56
2023-02-01T23:28:57.159Z,102182.81
2023-02-01T23:34:01.651Z,102194.06
2023-02-01T23:39:06.653Z,102192.97
2023-02-01T23:44:09.940Z,102194.91
2023-02-01T23:49:12.954Z,102189.44
2023-02-01T23:54:17.336Z,102173.53
2023-02-01T23:59:22.044Z,102173.53
